Time;durP1;ratioP1;P1;durP2;ratioP2;P2;SDS_P1;SDS_P2;PMS_P1;PMS_P2;Temp;Humidity;BMP_temperature;BMP_pressure;BME280_temperature;BME280_humidity;BME280_pressure;Samples;Min_cycle;Max_cycle;Signal;HPM_P1;HPM_P2
2024/01/12 00:01:21;;;;;;;6.72;5.47;;;;;;;18.67;39.23;101769.66;5035184;28;20065;-58
2024/01/12 00:03:48;;;;;;;6.10;5.13;;;;;;;18.67;39.25;101755.41;5043997;28;20049;-59
2024/01/12 00:06:16;;;;;;;6.45;5.38;;;;;;;18.66;39.32;101757.22;5037389;28;20041;-59
2024/01/12 00:08:43;;;;;;;6.28;5.43;;;;;;;18.66;39.15;101764.44;5047621;28;20053;-59
2024/01/12 00:11:11;;;;;;;6.97;5.30;;;;;;;18.65;39.11;101758.22;5034969;28;20056;-59
2024/01/12 00:13:38;;;;;;;7.40;5.68;;;;;;;18.65;38.99;101757.34;5026618;28;20045;-59
2024/01/12 00:16:06;;;;;;;5.88;5.28;;;;;;;18.65;38.89;101762.72;5035895;28;20041;-59
2024/01/12 00:18:34;;;;;;;6.15;5.45;;;;;;;18.65;38.81;101754.66;5023213;28;20052;-59
2024/01/12 00:21:02;;;;;;;6.05;5.30;;;;;;;18.64;38.85;101755.63;5033677;28;20057;-59
2024/01/12 00:23:29;;;;;;;6.75;5.13;;;;;;;18.63;38.76;101753.91;5033237;28;20060;-59
2024/01/12 00:25:59;;;;;;;6.93;5.10;;;;;;;18.63;38.79;101748.53;5039377;28;20055;-59
2024/01/12 00:28:27;;;;;;;6.05;5.32;;;;;;;18.63;38.82;101751.22;5038141;28;20048;-59
2024/01/12 00:30:54;;;;;;;6.60;5.10;;;;;;;18.62;38.80;101745.00;5035154;28;20057;-60
2024/01/12 00:33:22;;;;;;;6.35;5.22;;;;;;;18.61;38.77;101756.69;5037937;28;20049;-60
2024/01/12 00:35:50;;;;;;;5.95;4.53;;;;;;;18.62;38.59;101766.44;5040947;28;20056;-60
2024/01/12 00:38:17;;;;;;;7.65;5.43;;;;;;;18.61;38.61;101751.34;5034073;28;20045;-59
2024/01/12 00:40:45;;;;;;;6.40;4.90;;;;;;;18.61;38.60;101766.56;5038656;28;20053;-59
2024/01/12 00:43:12;;;;;;;6.70;5.55;;;;;;;18.60;38.79;101765.72;5038609;28;20045;-59
2024/01/12 00:45:39;;;;;;;6.97;5.10;;;;;;;18.60;38.68;101764.84;5048043;28;20037;-59
2024/01/12 00:48:07;;;;;;;7.18;5.10;;;;;;;18.59;38.60;101763.13;5038733;28;20041;-59
2024/01/12 00:50:35;;;;;;;6.10;5.10;;;;;;;18.59;38.71;101760.44;5038918;28;20042;-59
2024/01/12 00:53:03;;;;;;;5.65;4.50;;;;;;;18.59;38.58;101773.84;5038591;28;20503;-59
2024/01/12 00:55:30;;;;;;;6.15;4.90;;;;;;;18.58;38.76;101770.31;5039424;28;20060;-58
2024/01/12 00:57:58;;;;;;;5.88;4.70;;;;;;;18.58;38.74;101777.50;5038359;28;20046;-59
2024/01/12 01:00:25;;;;;;;5.78;4.90;;;;;;;18.56;38.73;101774.94;5043864;28;20052;-59
2024/01/12 01:02:52;;;;;;;5.13;4.07;;;;;;;18.57;38.74;101767.75;5042329;28;20042;-59
2024/01/12 01:05:20;;;;;;;5.30;4.20;;;;;;;18.56;38.69;101774.94;5047760;28;20048;-59
2024/01/12 01:07:47;;;;;;;4.90;4.18;;;;;;;18.56;38.92;101774.06;5038658;28;20498;-59
2024/01/12 01:10:15;;;;;;;5.38;3.80;;;;;;;18.54;38.57;101774.16;5038678;28;20049;-59
2024/01/12 01:12:42;;;;;;;5.28;4.43;;;;;;;18.53;38.76;101778.66;5037405;28;20102;-59
2024/01/12 01:15:13;;;;;;;5.60;4.57;;;;;;;18.53;38.80;101780.50;5047822;28;20418;-59
2024/01/12 01:17:41;;;;;;;5.35;4.30;;;;;;;18.52;38.78;101782.31;5038080;28;20060;-59
2024/01/12 01:20:09;;;;;;;6.15;3.95;;;;;;;18.52;38.66;101782.31;5037993;28;20042;-60
2024/01/12 01:22:37;;;;;;;6.00;4.68;;;;;;;18.51;38.75;101772.56;5038045;28;20045;-60
2024/01/12 01:25:06;;;;;;;5.28;4.25;;;;;;;18.52;38.79;101781.47;5050921;28;20037;-60
2024/01/12 01:27:33;;;;;;;5.13;4.00;;;;;;;18.51;38.82;101771.69;5038801;28;20045;-59
2024/01/12 01:30:01;;;;;;;5.18;4.38;;;;;;;18.49;38.84;101771.78;5045416;28;20064;-60
2024/01/12 01:32:28;;;;;;;6.03;4.38;;;;;;;18.51;38.84;101782.41;5017834;28;20046;-60
2024/01/12 01:34:56;;;;;;;5.22;4.22;;;;;;;18.49;38.79;101784.34;5045968;28;20048;-60
2024/01/12 01:37:23;;;;;;;5.85;4.65;;;;;;;18.48;38.73;101779.94;5040030;28;20057;-59
2024/01/12 01:39:51;;;;;;;6.28;4.80;;;;;;;18.49;38.82;101782.53;5014648;28;20053;-60
2024/01/12 01:42:19;;;;;;;5.15;3.85;;;;;;;18.49;38.85;101778.97;5040577;28;20040;-60
2024/01/12 01:44:46;;;;;;;4.82;3.97;;;;;;;18.49;38.84;101776.31;5046302;28;20049;-59
2024/01/12 01:47:15;;;;;;;5.88;4.35;;;;;;;18.48;38.67;101770.09;5047734;28;20376;-59
2024/01/12 01:49:43;;;;;;;5.18;4.13;;;;;;;18.48;38.81;101769.22;5050962;28;20399;-60
2024/01/12 01:52:11;;;;;;;5.60;4.07;;;;;;;18.46;38.66;101760.41;5049994;28;20045;-60
2024/01/12 01:54:39;;;;;;;4.57;3.70;;;;;;;18.46;38.74;101755.06;5043317;28;20049;-60
2024/01/12 01:57:06;;;;;;;4.53;3.50;;;;;;;18.46;38.76;101752.38;5047606;28;20407;-59
2024/01/12 01:59:36;;;;;;;5.22;4.07;;;;;;;18.46;38.57;101747.00;5047466;28;20045;-60
2024/01/12 02:02:04;;;;;;;4.93;3.65;;;;;;;18.45;38.64;101739.94;5018732;28;20523;-60
2024/01/12 02:04:31;;;;;;;5.55;3.97;;;;;;;18.45;38.47;101742.63;5039866;28;20050;-60
2024/01/12 02:06:59;;;;;;;4.53;3.40;;;;;;;18.44;38.68;101738.22;5029896;28;20052;-59
2024/01/12 02:09:31;;;;;;;4.13;3.30;;;;;;;18.43;38.66;101734.69;5047001;28;20048;-60
2024/01/12 02:11:59;;;;;;;6.05;4.55;;;;;;;18.44;38.57;101738.22;5044830;28;20444;-60
2024/01/12 02:14:26;;;;;;;5.68;4.30;;;;;;;18.43;38.75;101741.84;5035961;28;20049;-60
2024/01/12 02:16:54;;;;;;;4.93;3.88;;;;;;;18.44;38.65;101743.59;5046445;28;20052;-59
2024/01/12 02:19:21;;;;;;;4.85;3.90;;;;;;;18.44;38.75;101746.25;5041582;28;20036;-58
2024/01/12 02:21:49;;;;;;;5.18;3.78;;;;;;;18.43;38.74;101747.22;5042601;28;20049;-59
2024/01/12 02:24:16;;;;;;;7.47;3.63;;;;;;;18.43;38.64;101732.00;5044412;28;20416;-59
2024/01/12 02:26:43;;;;;;;5.38;3.78;;;;;;;18.42;38.85;101732.94;5046746;28;20045;-59
2024/01/12 02:29:11;;;;;;;5.35;3.58;;;;;;;18.41;38.80;101733.06;5046342;28;20049;-59
2024/01/12 02:31:39;;;;;;;5.13;3.80;;;;;;;18.40;38.84;101715.28;5042661;28;20072;-59
2024/01/12 02:34:07;;;;;;;5.05;4.00;;;;;;;18.41;38.72;101723.19;5044737;28;20064;-58
2024/01/12 02:36:34;;;;;;;4.32;3.47;;;;;;;18.40;38.77;101709.91;5046592;28;20045;-59
2024/01/12 02:39:02;;;;;;;4.85;3.50;;;;;;;18.39;38.85;101698.31;5024235;28;20050;-59
2024/01/12 02:41:29;;;;;;;5.25;3.55;;;;;;;18.39;38.80;101702.81;5042473;28;20040;-60
2024/01/12 02:43:57;;;;;;;4.15;3.22;;;;;;;18.37;38.91;101700.22;5031942;28;20557;-60
2024/01/12 02:46:24;;;;;;;5.28;3.70;;;;;;;18.36;38.82;101693.16;5039636;28;20050;-60
2024/01/12 02:48:52;;;;;;;4.68;3.38;;;;;;;18.36;38.88;101698.53;5040539;28;20406;-59
2024/01/12 02:51:19;;;;;;;4.10;3.03;;;;;;;18.36;38.71;101687.81;5017898;28;20041;-60
2024/01/12 02:53:46;;;;;;;4.50;3.30;;;;;;;18.35;38.86;101672.69;5044357;28;20045;-60
2024/01/12 02:56:14;;;;;;;5.32;3.42;;;;;;;18.36;38.80;101668.19;5045634;28;20048;-60
2024/01/12 02:58:41;;;;;;;4.53;3.38;;;;;;;18.35;38.70;101667.31;5046525;28;20049;-59
2024/01/12 03:01:09;;;;;;;5.10;3.38;;;;;;;18.35;38.75;101664.66;5042763;28;20067;-60
2024/01/12 03:03:36;;;;;;;4.32;3.17;;;;;;;18.36;38.66;101668.19;5032104;28;20054;-60
2024/01/12 03:06:05;;;;;;;4.47;3.20;;;;;;;18.36;38.71;101654.78;5046173;28;20049;-60
2024/01/12 03:08:32;;;;;;;5.65;3.40;;;;;;;18.35;38.76;101658.41;5046193;28;20558;-59
2024/01/12 03:10:59;;;;;;;4.20;2.80;;;;;;;18.35;38.76;101653.94;5042702;28;20045;-60
2024/01/12 03:13:27;;;;;;;5.60;3.88;;;;;;;18.35;38.61;101661.09;5047434;28;20076;-60
2024/01/12 03:15:54;;;;;;;4.30;3.15;;;;;;;18.34;38.67;101656.69;5044763;28;20061;-60
2024/01/12 03:18:22;;;;;;;3.85;2.80;;;;;;;18.34;38.69;101659.38;5046152;28;20049;-60
2024/01/12 03:20:50;;;;;;;4.47;3.25;;;;;;;18.34;38.60;101667.41;5041931;28;20522;-60
2024/01/12 03:23:17;;;;;;;4.38;2.92;;;;;;;18.33;38.68;101660.34;5044620;28;20060;-60
2024/01/12 03:25:44;;;;;;;3.92;2.90;;;;;;;18.33;38.64;101665.72;5046307;28;20041;-60
2024/01/12 03:28:12;;;;;;;3.78;2.78;;;;;;;18.32;38.65;101661.31;5046288;28;20045;-59
2024/01/12 03:30:39;;;;;;;4.80;3.08;;;;;;;18.32;38.58;101661.31;5042578;28;20053;-60
2024/01/12 03:33:08;;;;;;;4.05;2.85;;;;;;;18.30;38.67;101661.41;5032208;28;20388;-60
2024/01/12 03:35:36;;;;;;;3.70;2.92;;;;;;;18.28;38.69;101664.19;5046463;28;20052;-60
2024/01/12 03:38:03;;;;;;;3.55;2.72;;;;;;;18.27;38.63;101669.66;5046163;28;20045;-58
2024/01/12 03:40:31;;;;;;;4.50;3.25;;;;;;;18.26;38.51;101671.47;5021532;28;20064;-58
2024/01/12 03:42:58;;;;;;;4.38;2.90;;;;;;;18.26;38.70;101668.78;5043549;28;20056;-58
2024/01/12 03:45:25;;;;;;;4.65;2.90;;;;;;;18.27;38.60;101672.31;5046465;28;20048;-59
2024/01/12 03:47:53;;;;;;;3.42;2.78;;;;;;;18.26;38.58;101674.16;5047047;28;20048;-59
2024/01/12 03:50:20;;;;;;;3.53;2.67;;;;;;;18.25;38.68;101675.13;5042386;28;20471;-60
2024/01/12 03:52:47;;;;;;;3.60;2.47;;;;;;;18.25;38.59;101691.19;5031672;28;20048;-60
2024/01/12 03:55:15;;;;;;;3.80;2.78;;;;;;;18.25;38.60;101682.31;5032805;28;20472;-59
2024/01/12 03:57:42;;;;;;;4.63;2.83;;;;;;;18.24;38.58;101675.25;5035950;28;20041;-58
2024/01/12 04:00:10;;;;;;;3.85;2.72;;;;;;;18.24;38.69;101685.97;5045139;28;20048;-58
2024/01/12 04:02:37;;;;;;;4.00;2.40;;;;;;;18.23;38.57;101693.16;5048832;28;20049;-58
2024/01/12 04:05:05;;;;;;;4.65;2.65;;;;;;;18.25;38.67;101698.38;5050041;28;20052;-59
2024/01/12 04:07:32;;;;;;;4.22;3.05;;;;;;;18.25;38.54;101707.28;5049928;28;20585;-59
2024/01/12 04:10:00;;;;;;;3.45;2.22;;;;;;;18.23;38.57;101709.22;5046047;28;20483;-60
2024/01/12 04:12:27;;;;;;;4.32;2.83;;;;;;;18.24;38.64;101704.72;5048977;28;20384;-60
2024/01/12 04:14:54;;;;;;;4.05;2.58;;;;;;;18.25;38.52;101703.75;5049690;28;20491;-60
2024/01/12 04:17:23;;;;;;;3.53;2.30;;;;;;;18.24;38.63;101710.06;5049891;28;20049;-59
2024/01/12 04:19:50;;;;;;;3.80;2.80;;;;;;;18.23;38.65;101706.53;5046754;28;20055;-59
2024/01/12 04:22:18;;;;;;;3.70;2.58;;;;;;;18.23;38.53;101714.59;5048129;28;20053;-58
2024/01/12 04:24:45;;;;;;;4.47;2.92;;;;;;;18.22;38.54;101720.88;5049243;28;20052;-59
2024/01/12 04:27:12;;;;;;;3.53;2.40;;;;;;;18.21;38.60;101713.81;5038237;28;20048;-59
2024/01/12 04:29:40;;;;;;;4.28;2.90;;;;;;;18.21;38.66;101723.69;5044566;28;20112;-59
2024/01/12 04:32:08;;;;;;;3.35;2.20;;;;;;;18.21;38.61;101727.22;5045717;28;20049;-59
2024/01/12 04:34:36;;;;;;;3.78;2.33;;;;;;;18.20;38.58;101736.22;5049068;28;20052;-60
2024/01/12 04:37:05;;;;;;;3.28;2.22;;;;;;;18.21;38.45;101731.72;5038472;28;20041;-59
2024/01/12 04:39:34;;;;;;;3.28;2.50;;;;;;;18.20;38.62;101733.53;5045676;28;20059;-59
2024/01/12 04:42:04;;;;;;;3.47;2.58;;;;;;;18.18;38.53;101730.09;5023880;28;20049;-59
2024/01/12 04:44:32;;;;;;;4.10;2.53;;;;;;;18.18;38.52;101731.91;5049979;28;20048;-59
2024/01/12 04:46:59;;;;;;;3.22;2.33;;;;;;;18.17;38.63;101730.22;5049629;28;20072;-59
2024/01/12 04:49:26;;;;;;;3.33;2.45;;;;;;;18.16;38.70;101737.41;5044339;28;20483;-60
2024/01/12 04:51:54;;;;;;;3.13;2.22;;;;;;;18.15;38.66;101735.69;5049608;28;20048;-60
2024/01/12 04:54:21;;;;;;;3.53;2.20;;;;;;;18.14;38.67;101735.75;5049481;28;20056;-60
2024/01/12 04:56:49;;;;;;;3.25;2.40;;;;;;;18.13;38.71;101734.91;5039090;28;20512;-60
2024/01/12 04:59:16;;;;;;;3.65;2.47;;;;;;;18.12;38.78;101737.69;5046857;28;20404;-59
2024/01/12 05:01:44;;;;;;;4.40;2.90;;;;;;;18.11;38.63;101730.59;5024964;28;20387;-59
2024/01/12 05:04:12;;;;;;;3.88;2.70;;;;;;;18.10;38.73;101731.56;5049086;28;20053;-59
2024/01/12 05:06:43;;;;;;;3.22;2.25;;;;;;;18.10;38.62;101728.88;5048653;28;20052;-58
2024/01/12 05:09:10;;;;;;;3.35;2.25;;;;;;;18.09;38.56;101725.34;5043442;28;20049;-59
2024/01/12 05:11:38;;;;;;;3.20;2.60;;;;;;;18.07;38.59;101729.09;5028654;28;20053;-59
2024/01/12 05:14:06;;;;;;;3.88;2.58;;;;;;;18.07;38.71;101732.66;5034071;28;20048;-59
2024/01/12 05:16:33;;;;;;;3.90;2.22;;;;;;;18.07;38.71;101734.44;5048333;28;20053;-58
2024/01/12 05:19:01;;;;;;;3.85;2.75;;;;;;;18.05;38.62;101731.88;5042723;28;20053;-58
2024/01/12 05:21:29;;;;;;;4.40;2.30;;;;;;;18.06;38.55;101738.94;5026573;28;20053;-59
2024/01/12 05:23:56;;;;;;;3.50;2.35;;;;;;;18.06;38.69;101738.09;5036389;28;20155;-59
2024/01/12 05:26:24;;;;;;;3.83;2.53;;;;;;;18.06;38.63;101744.31;5023886;28;20049;-59
2024/01/12 05:28:51;;;;;;;3.88;2.30;;;;;;;18.06;38.73;101744.31;5042293;28;20156;-59
2024/01/12 05:31:18;;;;;;;3.20;2.30;;;;;;;18.08;38.68;101752.25;5040537;28;20053;-59
2024/01/12 05:33:46;;;;;;;2.80;2.20;;;;;;;18.09;38.56;101745.94;5016827;28;20125;-59
2024/01/12 05:36:13;;;;;;;5.57;2.35;;;;;;;18.08;38.61;101758.47;5041584;28;20045;-58
2024/01/12 05:38:41;;;;;;;3.05;2.38;;;;;;;18.08;38.62;101758.47;5042659;28;20045;-59
2024/01/12 05:41:08;;;;;;;3.50;2.08;;;;;;;18.08;38.54;101760.31;5040223;28;20060;-58
2024/01/12 05:43:36;;;;;;;3.85;2.20;;;;;;;18.07;38.75;101758.56;5033794;28;20056;-58
2024/01/12 05:46:03;;;;;;;3.78;2.17;;;;;;;18.06;38.70;101762.22;5048769;28;20041;-58
2024/01/12 05:48:31;;;;;;;3.30;1.98;;;;;;;18.07;38.76;101766.59;5043070;28;20049;-58
2024/01/12 05:51:00;;;;;;;2.72;1.85;;;;;;;18.06;38.69;101768.41;5048966;28;20052;-58
2024/01/12 05:53:27;;;;;;;3.90;2.67;;;;;;;18.08;38.71;101771.03;5048429;28;20068;-58
2024/01/12 05:55:55;;;;;;;3.60;2.50;;;;;;;18.06;38.64;101765.75;5048431;28;20049;-58
2024/01/12 05:58:22;;;;;;;3.40;2.67;;;;;;;18.08;38.76;101771.03;5042015;28;20041;-57
2024/01/12 06:00:49;;;;;;;3.55;2.40;;;;;;;18.08;38.68;101765.66;5047502;28;20056;-57
2024/01/12 06:03:17;;;;;;;4.47;2.45;;;;;;;18.09;38.77;101759.34;5040727;28;20060;-57
2024/01/12 06:05:45;;;;;;;3.67;2.22;;;;;;;18.09;38.70;101764.69;5048381;28;20414;-57
2024/01/12 06:08:13;;;;;;;3.25;1.98;;;;;;;18.07;38.69;101763.91;5041843;28;20044;-59
2024/01/12 06:10:42;;;;;;;3.38;2.20;;;;;;;18.05;38.84;101769.38;5048133;28;20049;-61
2024/01/12 06:13:09;;;;;;;2.70;1.90;;;;;;;18.05;38.75;101774.75;5043918;28;20046;-61
2024/01/12 06:15:37;;;;;;;3.17;2.17;;;;;;;18.04;38.86;101779.25;5046222;28;20045;-58
2024/01/12 06:18:04;;;;;;;3.63;2.25;;;;;;;18.02;38.84;101774.94;5042639;28;20057;-61
2024/01/12 06:20:32;;;;;;;4.43;2.17;;;;;;;18.01;38.85;101781.28;5042545;28;20057;-61
2024/01/12 06:22:59;;;;;;;3.70;2.25;;;;;;;18.00;38.78;101782.25;5047162;28;20045;-61
2024/01/12 06:25:29;;;;;;;3.83;2.42;;;;;;;17.98;38.86;101779.63;5046660;28;20479;-61
2024/01/12 06:27:56;;;;;;;4.18;2.47;;;;;;;17.97;38.88;101783.28;5043444;28;20041;-61
2024/01/12 06:30:23;;;;;;;3.53;2.22;;;;;;;17.96;38.82;101776.22;5047919;28;20064;-61
2024/01/12 06:32:51;;;;;;;3.30;2.15;;;;;;;17.95;38.83;101779.84;5047986;28;20045;-60
2024/01/12 06:35:18;;;;;;;4.05;1.92;;;;;;;17.96;38.74;101786.06;5047768;28;20045;-59
2024/01/12 06:37:46;;;;;;;3.47;2.15;;;;;;;17.95;38.67;101781.69;5043252;28;20042;-60
2024/01/12 06:40:13;;;;;;;3.67;2.58;;;;;;;17.94;38.74;101786.16;5047776;28;20083;-59
2024/01/12 06:42:41;;;;;;;4.05;2.45;;;;;;;17.94;38.66;101787.97;5029966;28;20062;-60
2024/01/12 06:45:10;;;;;;;3.10;2.30;;;;;;;17.93;38.65;101794.31;5042797;28;20041;-60
2024/01/12 06:47:38;;;;;;;3.90;2.05;;;;;;;17.93;38.66;101807.69;5043698;28;20053;-59
2024/01/12 06:50:06;;;;;;;3.28;2.30;;;;;;;17.93;38.68;101815.75;5047705;28;20048;-59
2024/01/12 06:52:33;;;;;;;4.57;2.10;;;;;;;17.94;38.59;101809.41;5044088;28;20059;-60
2024/01/12 06:55:01;;;;;;;2.60;2.05;;;;;;;17.93;38.68;101810.38;5047100;28;20049;-60
2024/01/12 06:57:28;;;;;;;3.40;2.22;;;;;;;17.93;38.60;101808.56;5038042;28;20050;-60
2024/01/12 06:59:55;;;;;;;3.38;2.10;;;;;;;17.94;38.66;101810.25;5048129;28;20049;-60
2024/01/12 07:02:23;;;;;;;3.20;1.95;;;;;;;17.94;38.59;101815.63;5047624;28;20495;-60
2024/01/12 07:04:50;;;;;;;3.75;2.33;;;;;;;17.94;38.64;101812.09;5047084;28;20053;-60
2024/01/12 07:07:18;;;;;;;3.10;2.10;;;;;;;17.94;38.55;101814.78;5043407;28;20053;-57
2024/01/12 07:09:45;;;;;;;3.00;2.08;;;;;;;17.94;38.66;101809.41;5047417;28;20045;-57
2024/01/12 07:12:13;;;;;;;3.17;2.20;;;;;;;17.94;38.60;101817.44;5047215;28;20056;-60
2024/01/12 07:14:40;;;;;;;3.42;1.95;;;;;;;17.92;38.58;101820.25;5046988;28;20518;-60
2024/01/12 07:17:08;;;;;;;3.75;2.60;;;;;;;17.92;38.66;101817.56;5041734;28;20061;-60
2024/01/12 07:19:36;;;;;;;4.00;2.05;;;;;;;17.92;38.56;101827.41;5047284;28;20049;-61
2024/01/12 07:22:03;;;;;;;4.20;2.30;;;;;;;17.93;38.57;101827.31;5047386;28;20045;-61
2024/01/12 07:24:31;;;;;;;4.82;2.30;;;;;;;17.92;38.60;101830.94;5046267;28;20040;-61
2024/01/12 07:26:58;;;;;;;4.15;2.50;;;;;;;17.93;38.66;101834.50;5042819;28;20045;-61
2024/01/12 07:29:26;;;;;;;2.88;2.00;;;;;;;17.91;38.50;101831.06;5046802;28;20391;-61
2024/01/12 07:31:54;;;;;;;4.07;2.42;;;;;;;17.92;38.72;101843.50;5047926;28;20407;-61
2024/01/12 07:34:22;;;;;;;3.10;2.05;;;;;;;17.92;38.55;101838.13;5045610;28;20044;-58
2024/01/12 07:36:49;;;;;;;4.82;2.63;;;;;;;17.90;38.71;101845.41;5043205;28;20045;-61
2024/01/12 07:39:17;;;;;;;3.50;2.13;;;;;;;17.91;38.78;101861.38;5047244;28;20056;-61
2024/01/12 07:41:44;;;;;;;4.72;2.08;;;;;;;17.89;38.71;101851.72;5045226;28;20060;-60
2024/01/12 07:44:13;;;;;;;3.55;2.22;;;;;;;17.89;38.85;101859.75;5026383;28;20049;-60
2024/01/12 07:46:40;;;;;;;4.05;2.30;;;;;;;17.89;38.99;101851.72;5044492;28;20042;-59
2024/01/12 07:49:08;;;;;;;4.50;2.63;;;;;;;17.87;38.90;101857.19;5046015;28;20041;-58
2024/01/12 07:51:35;;;;;;;5.13;3.05;;;;;;;17.88;38.97;101863.41;5048004;28;20095;-59
2024/01/12 07:54:03;;;;;;;3.35;2.05;;;;;;;17.87;39.05;101869.72;5046627;28;20056;-58
2024/01/12 07:56:31;;;;;;;3.65;2.20;;;;;;;17.88;39.06;101874.13;5043693;28;20053;-58
2024/01/12 07:58:58;;;;;;;3.42;2.30;;;;;;;17.88;39.06;101879.47;5047346;28;20037;-58
2024/01/12 08:01:25;;;;;;;4.72;2.63;;;;;;;17.88;39.10;101876.78;5047870;28;20049;-56
2024/01/12 08:03:53;;;;;;;3.38;2.40;;;;;;;17.87;39.11;101883.97;5046968;28;20068;-58
2024/01/12 08:06:20;;;;;;;3.95;2.20;;;;;;;17.87;39.11;101873.25;5043813;28;20061;-58
2024/01/12 08:08:48;;;;;;;3.42;1.98;;;;;;;17.88;39.12;101884.81;5049895;28;20052;-61
2024/01/12 08:11:15;;;;;;;4.28;2.63;;;;;;;17.87;38.94;101889.34;5047989;28;20068;-61
2024/01/12 08:14:01;;;;;;;4.50;2.65;;;;;;;17.89;39.01;101886.53;5043011;28;20045;-60
2024/01/12 08:16:30;;;;;;;4.63;2.40;;;;;;;17.87;39.08;101886.66;5048102;28;20104;-60
2024/01/12 08:18:57;;;;;;;4.28;2.33;;;;;;;17.89;38.83;101890.06;5047615;28;20056;-57
2024/01/12 08:21:25;;;;;;;4.18;2.08;;;;;;;17.90;39.05;101896.28;5047671;28;20108;-57
2024/01/12 08:23:54;;;;;;;3.95;2.30;;;;;;;17.89;39.10;101892.75;5043304;28;20053;-57
2024/01/12 08:26:21;;;;;;;3.58;2.03;;;;;;;17.91;39.24;101892.69;5047325;28;20044;-58
2024/01/12 08:28:54;;;;;;;4.18;2.72;;;;;;;17.93;39.25;101898.78;5040961;28;20396;-57
2024/01/12 08:31:22;;;;;;;4.38;2.55;;;;;;;17.94;39.34;101904.03;5045607;28;20064;-57
2024/01/12 08:33:49;;;;;;;4.68;2.38;;;;;;;17.96;39.44;101901.28;5043616;28;20041;-57
2024/01/12 08:36:17;;;;;;;3.95;2.33;;;;;;;17.97;39.58;101901.16;5046576;28;20056;-57
2024/01/12 08:38:45;;;;;;;6.97;2.20;;;;;;;17.98;39.69;101905.56;5047273;28;20060;-60
2024/01/12 08:41:12;;;;;;;3.40;2.15;;;;;;;17.98;39.70;101907.38;5045156;28;20045;-60
2024/01/12 08:43:40;;;;;;;3.97;2.50;;;;;;;17.99;39.75;101899.28;5044410;28;20064;-59
2024/01/12 08:46:08;;;;;;;3.33;2.25;;;;;;;18.00;39.82;101900.97;5047589;28;20380;-61
2024/01/12 08:48:36;;;;;;;4.03;2.58;;;;;;;18.01;39.69;101901.84;5050771;28;20503;-57
2024/01/12 08:51:03;;;;;;;5.50;2.85;;;;;;;17.98;38.67;101900.22;5049597;28;20053;-58
2024/01/12 08:53:35;;;;;;;5.03;3.78;;;;;;;17.95;37.57;101887.03;5047218;28;20057;-58
2024/01/12 08:56:03;;;;;;;7.20;3.40;;;;;;;17.95;36.90;101892.38;5050832;28;20044;-58
2024/01/12 08:58:30;;;;;;;5.88;3.53;;;;;;;17.95;36.36;101896.88;5050885;28;20044;-61
2024/01/12 09:01:01;;;;;;;6.38;3.90;;;;;;;17.93;35.69;101896.97;5026217;28;20058;-61
2024/01/12 09:03:28;;;;;;;4.38;2.83;;;;;;;17.91;35.48;101904.25;5047838;28;20057;-61
2024/01/12 09:05:56;;;;;;;5.53;3.67;;;;;;;17.89;35.19;101892.75;5050812;28;20068;-61
2024/01/12 09:08:23;;;;;;;4.95;2.97;;;;;;;17.89;34.86;101902.63;5052673;28;20044;-58
2024/01/12 09:10:51;;;;;;;4.20;3.08;;;;;;;17.86;34.97;101903.66;5048721;28;20096;-58
2024/01/12 09:13:18;;;;;;;4.68;3.20;;;;;;;17.85;34.67;101909.13;5047546;28;20057;-58
2024/01/12 09:15:46;;;;;;;5.72;3.05;;;;;;;17.84;34.45;101913.63;5050349;28;20495;-56
2024/01/12 09:18:13;;;;;;;5.78;3.13;;;;;;;17.84;34.21;101907.41;5049145;28;20525;-60
2024/01/12 09:20:41;;;;;;;4.47;3.08;;;;;;;17.84;34.18;101912.75;5048387;28;20053;-60
2024/01/12 09:23:11;;;;;;;4.30;2.85;;;;;;;17.84;34.04;101912.75;5047715;28;20046;-59
2024/01/12 09:25:38;;;;;;;4.43;3.22;;;;;;;17.82;34.33;101910.16;5050198;28;20414;-60
2024/01/12 09:28:06;;;;;;;6.00;3.00;;;;;;;17.84;34.11;101918.97;5050231;28;20045;-57
2024/01/12 09:30:34;;;;;;;4.30;3.28;;;;;;;17.84;33.83;101920.81;5047294;28;20056;-57
2024/01/12 09:33:02;;;;;;;4.80;3.10;;;;;;;17.83;33.78;101921.75;5048075;28;20044;-57
2024/01/12 09:35:30;;;;;;;4.85;3.72;;;;;;;17.85;33.75;101919.84;5049911;28;20048;-57
2024/01/12 09:37:57;;;;;;;3.78;3.03;;;;;;;17.86;34.13;101914.38;5050109;28;20052;-60
2024/01/12 09:40:25;;;;;;;5.80;2.80;;;;;;;17.90;34.97;101918.59;5047024;28;20048;-59
2024/01/12 09:42:55;;;;;;;4.60;3.30;;;;;;;17.92;35.54;101913.16;5045914;28;20076;-59
2024/01/12 09:45:23;;;;;;;4.10;3.30;;;;;;;17.94;35.81;101920.09;5042712;28;20048;-61
2024/01/12 09:47:52;;;;;;;5.40;3.47;;;;;;;17.95;35.95;101916.50;5049627;28;20045;-61
2024/01/12 09:50:21;;;;;;;4.15;2.50;;;;;;;17.97;36.07;101922.59;5045005;28;20415;-61
2024/01/12 09:52:51;;;;;;;4.10;2.65;;;;;;;17.99;36.25;101922.53;5026298;28;20049;-61
2024/01/12 09:55:18;;;;;;;3.70;2.38;;;;;;;18.00;36.32;101926.91;5049846;28;20427;-59
2024/01/12 09:57:46;;;;;;;4.35;2.92;;;;;;;18.00;36.28;101925.09;5049759;28;20041;-56
2024/01/12 10:00:14;;;;;;;3.75;2.45;;;;;;;18.01;36.50;101921.47;5044478;28;20407;-57
2024/01/12 10:02:42;;;;;;;5.55;2.58;;;;;;;18.03;36.55;101918.69;5049311;28;20049;-57
2024/01/12 10:05:10;;;;;;;4.85;2.72;;;;;;;18.03;36.72;101916.88;5048915;28;20155;-57
2024/01/12 10:07:38;;;;;;;4.60;2.63;;;;;;;18.04;36.78;101918.59;5049865;28;20052;-59
2024/01/12 10:10:06;;;;;;;5.00;3.03;;;;;;;18.04;36.69;101915.91;5044255;28;20052;-59
2024/01/12 10:12:34;;;;;;;4.15;2.80;;;;;;;18.06;36.85;101912.25;5049030;28;20068;-60
2024/01/12 10:15:02;;;;;;;6.47;3.28;;;;;;;18.08;36.92;101918.41;5036855;28;20408;-60
2024/01/12 10:17:31;;;;;;;4.13;2.58;;;;;;;18.08;36.83;101910.38;5044140;28;20048;-57
2024/01/12 10:19:59;;;;;;;3.95;2.55;;;;;;;18.08;36.99;101911.22;5043210;28;20037;-57
2024/01/12 10:22:27;;;;;;;6.13;2.35;;;;;;;18.08;37.19;101910.38;5049228;28;20045;-58
2024/01/12 10:24:58;;;;;;;3.42;2.72;;;;;;;18.09;37.25;101909.41;5048754;28;20382;-58
2024/01/12 10:27:27;;;;;;;4.20;2.63;;;;;;;18.08;37.23;101905.88;5038691;28;20045;-61
2024/01/12 10:29:56;;;;;;;4.78;2.90;;;;;;;18.09;37.11;101896.00;5045795;28;20058;-61
2024/01/12 10:32:24;;;;;;;4.55;3.10;;;;;;;18.09;37.32;101896.84;5048339;28;20060;-60
2024/01/12 10:34:53;;;;;;;4.55;2.70;;;;;;;18.09;37.43;101888.81;5048467;28;20056;-57
2024/01/12 10:37:21;;;;;;;4.38;2.83;;;;;;;18.10;37.53;101895.88;5046662;28;20060;-57
2024/01/12 10:39:50;;;;;;;4.85;2.72;;;;;;;18.08;37.39;101895.13;5045775;28;20044;-56
2024/01/12 10:42:20;;;;;;;4.82;2.80;;;;;;;18.09;37.53;101891.50;5047827;28;20403;-57
2024/01/12 10:44:51;;;;;;;4.75;3.15;;;;;;;18.08;37.57;101892.47;5048368;28;20044;-56
2024/01/12 10:47:21;;;;;;;4.13;2.53;;;;;;;18.09;37.60;101888.81;5045300;28;20053;-59
2024/01/12 10:50:05;;;;;;;5.07;2.80;;;;;;;18.08;37.63;101887.09;5048154;28;20045;-59
2024/01/12 10:52:36;;;;;;;5.00;2.83;;;;;;;18.08;37.76;101887.09;5048384;28;20071;-59
2024/01/12 10:55:05;;;;;;;6.53;3.05;;;;;;;18.08;37.72;101878.22;5046423;28;20049;-59
2024/01/12 10:57:34;;;;;;;4.22;2.80;;;;;;;18.06;37.75;101883.66;5045950;28;20412;-57
2024/01/12 11:00:04;;;;;;;4.18;2.97;;;;;;;18.08;37.85;101887.09;5047312;28;20064;-57
2024/01/12 11:02:33;;;;;;;6.82;3.33;;;;;;;18.07;37.90;101879.13;5048266;28;20052;-57
2024/01/12 11:05:01;;;;;;;3.80;2.63;;;;;;;18.06;37.80;101883.66;5044836;28;20056;-57
2024/01/12 11:07:29;;;;;;;4.55;2.83;;;;;;;18.06;37.85;101888.16;5047090;28;20402;-60
2024/01/12 11:10:00;;;;;;;4.20;2.90;;;;;;;18.05;37.99;101895.34;5047645;28;20049;-60
2024/01/12 11:12:36;;;;;;;4.32;2.85;;;;;;;18.06;38.02;101894.38;5047739;28;20056;-60
2024/01/12 11:15:05;;;;;;;3.95;2.88;;;;;;;18.04;37.95;101882.91;5042836;28;20403;-60
2024/01/12 11:17:36;;;;;;;5.13;3.28;;;;;;;18.06;38.02;101888.16;5048234;28;20092;-57
2024/01/12 11:20:11;;;;;;;4.22;3.22;;;;;;;18.04;38.05;101886.44;5048066;28;20056;-57
2024/01/12 11:22:40;;;;;;;4.03;3.15;;;;;;;18.04;38.03;101885.56;5045738;28;20064;-57
2024/01/12 11:25:10;;;;;;;4.60;3.10;;;;;;;18.04;37.97;101874.84;5046420;28;20068;-57
2024/01/12 11:27:39;;;;;;;3.92;2.70;;;;;;;18.04;38.03;101877.53;5041018;28;20045;-57